• images/banner/banner1.jpg
  • images/banner/banner2.jpg

Team Member Login

Aviation Weather

[source: ADDS]
METAR
EGVN 211850Z 04003KT 7000 4000SE HZ SCT019 SCT026 BKN048 05/04 Q1026 GRN TEMPO SCT012 =
TAF
TAF AMD EGVN 211824Z 2118/2218 04007KT 4000 BR SCT018 BECMG 2118/2120 FEW040 TEMPO 2118/2121 7000 HZ TEMPO 2200/2208 BKN012 PROB40 TEMPO 2202/2208 2500 BKN005 BECMG 2207/2210 9999 NSW =